createdAt,value
2023-04-29T00:00:17.754Z,101562.73
2023-04-29T00:02:47.266Z,101566.88
2023-04-29T00:05:17.448Z,101560.88
2023-04-29T00:07:47.070Z,101573.03
2023-04-29T00:10:16.898Z,101566.77
2023-04-29T00:12:46.314Z,101574.39
2023-04-29T00:15:15.695Z,101577.94
2023-04-29T00:17:45.669Z,101581.16
2023-04-29T00:20:15.447Z,101573.84
2023-04-29T00:22:45.232Z,101574.41
2023-04-29T00:25:14.786Z,101570.95
2023-04-29T00:27:44.101Z,101575.91
2023-04-29T00:30:13.803Z,101572.78
2023-04-29T00:32:44.836Z,101574.49
2023-04-29T00:35:14.500Z,101580.20
2023-04-29T00:37:43.790Z,101583.78
2023-04-29T00:40:15.160Z,101585.52
2023-04-29T00:42:44.517Z,101585.09
2023-04-29T00:45:13.859Z,101589.95
2023-04-29T00:47:43.199Z,101579.05
2023-04-29T00:50:12.651Z,101584.90
2023-04-29T00:52:41.924Z,101591.26
2023-04-29T00:55:14.503Z,101588.89
2023-04-29T00:57:43.222Z,101590.67
2023-04-29T01:00:13.872Z,101587.02
2023-04-29T01:02:43.516Z,101595.46
2023-04-29T01:05:13.229Z,101591.98
2023-04-29T01:07:57.881Z,101595.36
2023-04-29T01:10:33.731Z,101600.61
2023-04-29T01:13:11.922Z,101606.81
2023-04-29T01:15:59.739Z,101605.30
2023-04-29T01:18:31.144Z,101606.97
2023-04-29T01:21:01.692Z,101609.05
2023-04-29T01:23:31.718Z,101615.11
2023-04-29T01:26:01.676Z,101615.05
2023-04-29T01:28:38.428Z,101615.97
2023-04-29T01:31:20.225Z,101611.92
2023-04-29T01:34:07.879Z,101612.23
2023-04-29T01:36:46.800Z,101617.95
2023-04-29T01:39:28.346Z,101621.72
2023-04-29T01:42:00.693Z,101621.92
2023-04-29T01:44:32.377Z,101620.88
2023-04-29T01:47:02.937Z,101624.91
2023-04-29T01:49:38.193Z,101627.08
2023-04-29T01:52:08.467Z,101629.34
2023-04-29T01:54:39.876Z,101631.16
2023-04-29T01:57:09.908Z,101632.56
2023-04-29T01:59:42.051Z,101637.81
2023-04-29T02:02:21.417Z,101633.98
2023-04-29T02:04:52.714Z,101638.18
2023-04-29T02:07:22.742Z,101636.31
2023-04-29T02:09:52.453Z,101638.58
2023-04-29T02:12:23.910Z,101638.38
2023-04-29T02:14:55.912Z,101642.22
2023-04-29T02:17:26.712Z,101651.60
2023-04-29T02:19:56.063Z,101655.55
2023-04-29T02:22:25.580Z,101653.94
2023-04-29T02:24:56.613Z,101659.68
2023-04-29T02:27:26.702Z,101658.62
2023-04-29T02:29:56.131Z,101664.63
2023-04-29T02:32:26.949Z,101666.80
2023-04-29T02:34:56.319Z,101667.55
2023-04-29T02:37:25.691Z,101675.14
2023-04-29T02:39:55.188Z,101676.16
2023-04-29T02:42:25.029Z,101681.50
2023-04-29T02:44:54.572Z,101687.61
2023-04-29T02:47:23.986Z,101689.88
2023-04-29T02:49:53.904Z,101692.50
2023-04-29T02:52:23.664Z,101700.84
2023-04-29T02:54:53.110Z,101697.45
2023-04-29T02:57:22.490Z,101699.79
2023-04-29T02:59:52.030Z,101702.61
2023-04-29T03:02:21.605Z,101707.56
2023-04-29T03:04:53.338Z,101703.66
2023-04-29T03:07:23.123Z,101706.84
2023-04-29T03:09:54.888Z,101707.66
2023-04-29T03:12:25.063Z,101702.81
2023-04-29T03:14:54.541Z,101707.13
2023-04-29T03:17:24.980Z,101705.89
2023-04-29T03:19:54.829Z,101703.63
2023-04-29T03:22:24.470Z,101717.25
2023-04-29T03:24:54.068Z,101713.77
2023-04-29T03:27:23.933Z,101719.58
2023-04-29T03:29:53.876Z,101718.00
2023-04-29T03:32:24.097Z,101715.73
2023-04-29T03:34:54.771Z,101713.58
2023-04-29T03:37:38.850Z,101721.45
2023-04-29T03:40:15.747Z,101713.38
2023-04-29T03:42:45.376Z,101722.86
2023-04-29T03:45:15.000Z,101722.11
2023-04-29T03:47:44.435Z,101722.58
2023-04-29T03:50:14.300Z,101726.52
2023-04-29T03:52:43.654Z,101726.25
2023-04-29T03:55:14.914Z,101724.73
2023-04-29T03:57:44.941Z,101732.16
2023-04-29T04:00:15.464Z,101726.61
2023-04-29T04:02:49.603Z,101728.41
2023-04-29T04:05:23.724Z,101726.15
2023-04-29T04:07:55.221Z,101730.09
2023-04-29T04:10:42.587Z,101736.66
2023-04-29T04:13:14.249Z,101736.09
2023-04-29T04:15:45.959Z,101748.02
2023-04-29T04:18:15.330Z,101748.11
2023-04-29T04:20:44.757Z,101746.20
2023-04-29T04:23:15.082Z,101745.00
2023-04-29T04:25:49.353Z,101756.91
2023-04-29T04:28:36.449Z,101755.96
2023-04-29T04:31:08.277Z,101758.33
2023-04-29T04:33:38.106Z,101758.78
2023-04-29T04:36:08.157Z,101762.36
2023-04-29T04:38:37.544Z,101760.55
2023-04-29T04:41:08.982Z,101770.41
2023-04-29T04:43:41.093Z,101776.88
2023-04-29T04:46:14.332Z,101783.91
2023-04-29T04:48:48.153Z,101784.48
2023-04-29T04:51:18.186Z,101789.06
2023-04-29T04:53:47.675Z,101791.23
2023-04-29T04:56:22.207Z,101799.20
2023-04-29T04:58:51.731Z,101802.59
2023-04-29T05:01:21.465Z,101809.61
2023-04-29T05:03:50.999Z,101809.06
2023-04-29T05:06:20.699Z,101808.66
2023-04-29T05:08:51.212Z,101807.55
2023-04-29T05:11:22.092Z,101804.73
2023-04-29T05:13:52.359Z,101810.35
2023-04-29T05:16:21.665Z,101812.59
2023-04-29T05:18:51.016Z,101814.50
2023-04-29T05:21:20.682Z,101817.13
2023-04-29T05:23:50.304Z,101823.41
2023-04-29T05:26:19.809Z,101828.75
2023-04-29T05:28:49.715Z,101831.09
2023-04-29T05:31:21.192Z,101836.44
2023-04-29T05:33:50.581Z,101837.56
2023-04-29T05:36:20.997Z,101836.80
2023-04-29T05:38:50.332Z,101842.44
2023-04-29T05:41:21.628Z,101846.93
2023-04-29T05:43:52.953Z,101846.76
2023-04-29T05:46:23.305Z,101845.61
2023-04-29T05:48:52.828Z,101846.17
2023-04-29T05:51:22.449Z,101854.26
2023-04-29T05:53:51.779Z,101855.66
2023-04-29T05:56:22.458Z,101857.45
2023-04-29T05:58:52.149Z,101862.97
2023-04-29T06:01:21.813Z,101867.37
2023-04-29T06:03:51.447Z,101871.42
2023-04-29T06:06:26.137Z,101873.09
2023-04-29T06:08:57.572Z,101882.03
2023-04-29T06:11:29.208Z,101882.30
2023-04-29T06:13:58.551Z,101888.38
2023-04-29T06:16:28.024Z,101888.84
2023-04-29T06:18:57.413Z,101896.47
2023-04-29T06:21:28.141Z,101899.67
2023-04-29T06:23:57.375Z,101899.30
2023-04-29T06:26:27.413Z,101907.36
2023-04-29T06:28:57.119Z,101912.81
2023-04-29T06:31:27.883Z,101910.56
2023-04-29T06:33:58.883Z,101915.45
2023-04-29T06:36:29.695Z,101912.14
2023-04-29T06:39:00.828Z,101916.75
2023-04-29T06:41:36.965Z,101920.31
2023-04-29T06:44:24.501Z,101915.17
2023-04-29T06:46:55.714Z,101922.28
2023-04-29T06:49:26.888Z,101926.96
2023-04-29T06:51:56.424Z,101936.57
2023-04-29T06:54:28.551Z,101936.28
2023-04-29T06:56:58.460Z,101945.19
2023-04-29T06:59:27.717Z,101947.15
2023-04-29T07:01:57.234Z,101949.58
2023-04-29T07:04:26.607Z,101958.00
2023-04-29T07:06:56.274Z,101957.38
2023-04-29T07:09:27.203Z,101960.00
2023-04-29T07:11:56.510Z,101965.91
2023-04-29T07:14:25.901Z,101964.53
2023-04-29T07:16:57.991Z,101972.84
2023-04-29T07:19:27.940Z,101975.81
2023-04-29T07:21:58.336Z,101975.16
2023-04-29T07:24:27.812Z,101971.64
2023-04-29T07:26:57.326Z,101980.86
2023-04-29T07:29:26.698Z,101984.52
2023-04-29T07:31:56.039Z,101984.74
2023-04-29T07:34:26.073Z,101991.45
2023-04-29T07:36:56.331Z,101988.92
2023-04-29T07:39:25.965Z,101994.34
2023-04-29T07:41:57.248Z,101998.54
2023-04-29T07:44:27.714Z,101999.00
2023-04-29T07:46:56.985Z,102006.70
2023-04-29T07:49:26.616Z,102009.94
2023-04-29T07:51:56.195Z,102012.02
2023-04-29T07:54:25.954Z,102008.82
2023-04-29T07:56:55.714Z,102013.10
2023-04-29T07:59:25.163Z,102013.59
2023-04-29T08:01:54.709Z,102008.50
2023-04-29T08:04:24.640Z,102006.34
2023-04-29T08:07:08.298Z,102011.95
2023-04-29T08:09:38.136Z,102020.81
2023-04-29T08:12:09.950Z,102016.75
2023-04-29T08:14:41.121Z,102009.55
2023-04-29T08:17:10.561Z,102022.60
2023-04-29T08:19:39.868Z,102017.39
2023-04-29T08:22:10.911Z,102016.83
2023-04-29T08:24:41.743Z,102018.58
2023-04-29T08:27:11.476Z,102021.05
2023-04-29T08:29:40.756Z,102020.78
2023-04-29T08:32:10.519Z,102023.91
2023-04-29T08:34:41.780Z,102022.66
2023-04-29T08:37:12.187Z,102027.05
2023-04-29T08:39:43.143Z,102032.81
2023-04-29T08:42:12.587Z,102035.35
2023-04-29T08:44:42.544Z,102030.95
2023-04-29T08:47:13.561Z,102030.19
2023-04-29T08:49:42.866Z,102034.33
2023-04-29T08:52:12.288Z,102033.92
2023-04-29T08:54:42.061Z,102033.18
2023-04-29T08:57:12.662Z,102034.57
2023-04-29T08:59:43.940Z,102031.48
2023-04-29T09:02:15.172Z,102038.32
2023-04-29T09:05:08.998Z,102039.17
2023-04-29T09:07:40.064Z,102045.30
2023-04-29T09:10:10.928Z,102049.44
2023-04-29T09:12:40.424Z,102050.42
2023-04-29T09:15:10.977Z,102053.23
2023-04-29T09:17:46.201Z,102058.66
2023-04-29T09:20:25.608Z,102053.55
2023-04-29T09:22:59.892Z,102058.93
2023-04-29T09:25:29.961Z,102063.89
2023-04-29T09:27:59.510Z,102060.65
2023-04-29T09:30:30.326Z,102061.97
2023-04-29T09:33:10.460Z,102064.30
2023-04-29T09:35:42.408Z,102065.85
2023-04-29T09:38:13.698Z,102063.58
2023-04-29T09:40:58.168Z,102065.28
2023-04-29T09:43:18.288Z,102065.08
2023-04-29T09:45:49.064Z,102067.23
2023-04-29T09:48:18.764Z,102065.80
2023-04-29T09:50:51.333Z,102069.91
2023-04-29T09:53:21.829Z,102070.14
2023-04-29T09:56:05.488Z,102067.97
2023-04-29T09:58:38.220Z,102071.57
2023-04-29T10:01:08.347Z,102076.41
2023-04-29T10:03:39.328Z,102082.80
2023-04-29T10:06:09.350Z,102079.84
2023-04-29T10:08:41.763Z,102089.17
2023-04-29T10:11:12.697Z,102086.32
2023-04-29T10:13:44.368Z,102091.69
2023-04-29T10:16:30.934Z,102089.69
2023-04-29T10:19:03.976Z,102095.05
2023-04-29T10:21:33.440Z,102093.32
2023-04-29T10:24:03.950Z,102096.56
2023-04-29T10:26:33.709Z,102099.75
2023-04-29T10:29:03.591Z,102097.91
2023-04-29T10:31:34.037Z,102092.77
2023-04-29T10:34:05.819Z,102095.54
2023-04-29T10:36:35.296Z,102092.35
2023-04-29T10:39:06.723Z,102092.17
2023-04-29T10:41:47.326Z,102092.77
2023-04-29T10:44:17.120Z,102091.50
2023-04-29T10:46:46.571Z,102083.33
2023-04-29T10:49:16.854Z,102098.03
2023-04-29T10:51:47.148Z,102099.64
2023-04-29T10:54:21.966Z,102095.45
2023-04-29T10:56:54.405Z,102093.42
2023-04-29T10:59:36.650Z,102092.39
2023-04-29T11:02:06.392Z,102098.17
2023-04-29T11:04:37.694Z,102092.14
2023-04-29T11:07:07.424Z,102096.84
2023-04-29T11:09:38.849Z,102101.20
2023-04-29T11:12:11.076Z,102102.67
2023-04-29T11:14:46.526Z,102100.06
2023-04-29T11:17:17.454Z,102102.47
2023-04-29T11:19:52.393Z,102102.47
2023-04-29T11:22:25.341Z,102096.81
2023-04-29T11:25:09.104Z,102101.47
2023-04-29T11:27:41.166Z,102101.45
2023-04-29T11:30:11.172Z,102099.38
2023-04-29T11:32:42.971Z,102099.91
2023-04-29T11:35:14.562Z,102096.52
2023-04-29T11:37:45.850Z,102092.82
2023-04-29T11:40:17.286Z,102092.45
2023-04-29T11:42:49.174Z,102091.41
2023-04-29T11:45:21.867Z,102091.74
2023-04-29T11:47:53.350Z,102096.66
2023-04-29T11:50:22.945Z,102094.20
2023-04-29T11:52:52.376Z,102097.11
2023-04-29T11:55:22.005Z,102097.42
2023-04-29T11:57:52.471Z,102094.55
2023-04-29T12:00:22.383Z,102089.57
2023-04-29T12:02:51.859Z,102089.36
2023-04-29T12:05:21.572Z,102092.16
2023-04-29T12:07:51.774Z,102099.09
2023-04-29T12:10:21.510Z,102094.02
2023-04-29T12:12:51.179Z,102093.05
2023-04-29T12:15:20.638Z,102097.02
2023-04-29T12:17:49.996Z,102087.16
2023-04-29T12:20:19.719Z,102096.06
2023-04-29T12:22:49.055Z,102092.09
2023-04-29T12:25:18.842Z,102095.36
2023-04-29T12:27:48.292Z,102098.80
2023-04-29T12:30:17.583Z,102095.53
2023-04-29T12:32:48.602Z,102092.25
2023-04-29T12:35:19.252Z,102092.25
2023-04-29T12:37:52.276Z,102102.22
2023-04-29T12:40:21.843Z,102108.03
2023-04-29T12:42:51.389Z,102103.19
2023-04-29T12:45:32.742Z,102099.94
2023-04-29T12:48:07.222Z,102101.56
2023-04-29T12:50:39.605Z,102109.74
2023-04-29T12:53:11.720Z,102107.87
2023-04-29T12:55:41.428Z,102108.39
2023-04-29T12:58:10.765Z,102104.06
2023-04-29T13:00:40.284Z,102110.92
2023-04-29T13:03:09.783Z,102102.14
2023-04-29T13:05:39.343Z,102113.56
2023-04-29T13:08:09.204Z,102111.56
2023-04-29T13:10:38.874Z,102111.66
2023-04-29T13:19:43.303Z,102117.28
2023-04-29T13:21:58.238Z,102112.53
2023-04-29T13:24:27.523Z,102111.68
2023-04-29T13:26:56.949Z,102101.45
2023-04-29T13:29:27.109Z,102111.45
2023-04-29T13:31:56.901Z,102100.32
2023-04-29T13:34:26.589Z,102100.32
2023-04-29T13:37:03.532Z,102110.71
2023-04-29T13:39:37.760Z,102106.30
2023-04-29T13:42:05.822Z,102109.97
2023-04-29T13:44:49.787Z,102107.48
2023-04-29T13:47:06.785Z,102111.66
2023-04-29T13:50:09.939Z,102111.48
2023-04-29T13:52:37.528Z,102114.45
2023-04-29T13:54:59.414Z,102112.60
2023-04-29T13:59:57.183Z,102118.47
2023-04-29T14:02:25.010Z,102122.34
2023-04-29T14:04:45.578Z,102116.05
2023-04-29T14:07:15.415Z,102119.86
2023-04-29T14:09:44.750Z,102124.59
2023-04-29T14:12:14.048Z,102125.25
2023-04-29T14:14:43.751Z,102116.03
2023-04-29T14:17:13.404Z,102121.53
2023-04-29T14:23:27.916Z,102132.99
2023-04-29T14:26:16.465Z,102123.38
2023-04-29T14:28:29.897Z,102129.33
2023-04-29T14:30:59.355Z,102124.64
2023-04-29T14:33:28.989Z,102121.36
2023-04-29T14:35:58.564Z,102130.77
2023-04-29T14:38:28.092Z,102125.37
2023-04-29T14:40:57.454Z,102131.84
2023-04-29T14:43:26.798Z,102121.00
2023-04-29T14:45:56.911Z,102125.31
2023-04-29T14:48:26.237Z,102129.57
2023-04-29T14:50:56.062Z,102118.52
2023-04-29T14:53:25.310Z,102118.52
2023-04-29T14:55:54.858Z,102121.61
2023-04-29T14:58:24.195Z,102135.50
2023-04-29T15:00:53.497Z,102133.00
2023-04-29T15:03:23.620Z,102132.08
2023-04-29T15:05:53.877Z,102131.17
2023-04-29T15:08:23.332Z,102129.07
2023-04-29T15:10:54.359Z,102129.50
2023-04-29T15:13:23.622Z,102132.80
2023-04-29T15:15:53.058Z,102143.91
2023-04-29T15:18:23.287Z,102140.59
2023-04-29T15:20:52.953Z,102137.07
2023-04-29T15:23:22.208Z,102143.25
2023-04-29T15:25:52.873Z,102141.16
2023-04-29T15:28:23.789Z,102141.97
2023-04-29T15:30:53.722Z,102142.34
2023-04-29T15:33:23.875Z,102144.20
2023-04-29T15:35:54.047Z,102150.53
2023-04-29T15:38:23.378Z,102143.53
2023-04-29T15:40:54.283Z,102146.20
2023-04-29T15:43:24.477Z,102153.41
2023-04-29T15:45:53.931Z,102142.78
2023-04-29T15:48:25.066Z,102142.78
2023-04-29T15:50:54.319Z,102145.69
2023-04-29T15:53:24.003Z,102147.09
2023-04-29T15:55:55.220Z,102147.54
2023-04-29T15:58:24.512Z,102148.41
2023-04-29T16:00:53.840Z,102149.89
2023-04-29T16:03:23.459Z,102154.59
2023-04-29T16:05:53.143Z,102167.89
2023-04-29T16:08:22.977Z,102152.52
2023-04-29T16:10:52.251Z,102157.83
2023-04-29T16:13:21.780Z,102157.36
2023-04-29T16:15:51.033Z,102167.52
2023-04-29T16:18:20.322Z,102162.39
2023-04-29T16:20:49.843Z,102159.36
2023-04-29T16:23:19.389Z,102163.59
2023-04-29T16:25:48.761Z,102165.59
2023-04-29T16:28:18.346Z,102166.47
2023-04-29T16:30:47.953Z,102161.95
2023-04-29T16:33:17.551Z,102160.09
2023-04-29T16:35:46.955Z,102160.66
2023-04-29T16:38:16.553Z,102165.87
2023-04-29T16:40:45.873Z,102168.06
2023-04-29T16:43:15.521Z,102166.39
2023-04-29T16:45:46.365Z,102156.42
2023-04-29T16:48:15.626Z,102163.09
2023-04-29T16:50:45.138Z,102158.34
2023-04-29T16:53:14.419Z,102161.99
2023-04-29T16:55:43.695Z,102164.96
2023-04-29T16:58:13.228Z,102168.48
2023-04-29T17:00:42.494Z,102165.39
2023-04-29T17:03:11.833Z,102166.23
2023-04-29T17:05:41.721Z,102161.64
2023-04-29T17:08:11.510Z,102162.52
2023-04-29T17:10:41.650Z,102154.34
2023-04-29T17:13:10.974Z,102165.66
2023-04-29T17:15:40.847Z,102164.73
2023-04-29T17:18:10.220Z,102161.91
2023-04-29T17:20:39.838Z,102163.96
2023-04-29T17:23:09.125Z,102165.23
2023-04-29T17:25:39.075Z,102165.50
2023-04-29T17:28:08.613Z,102167.23
2023-04-29T17:30:38.100Z,102167.20
2023-04-29T17:33:07.492Z,102166.81
2023-04-29T17:35:37.034Z,102163.52
2023-04-29T17:38:06.265Z,102160.36
2023-04-29T17:40:36.089Z,102163.05
2023-04-29T17:43:05.799Z,102171.60
2023-04-29T17:45:35.720Z,102170.75
2023-04-29T17:48:05.181Z,102172.18
2023-04-29T17:50:34.690Z,102180.02
2023-04-29T17:53:03.974Z,102178.69
2023-04-29T17:55:33.483Z,102175.18
2023-04-29T17:58:02.963Z,102173.13
2023-04-29T18:00:32.396Z,102175.89
2023-04-29T18:03:02.716Z,102178.28
2023-04-29T18:05:32.251Z,102185.83
2023-04-29T18:08:01.629Z,102185.13
2023-04-29T18:10:31.458Z,102183.30
2023-04-29T18:13:02.585Z,102186.60
2023-04-29T18:15:32.528Z,102190.16
2023-04-29T18:18:01.860Z,102185.34
2023-04-29T18:20:33.077Z,102185.67
2023-04-29T18:23:02.739Z,102184.82
2023-04-29T18:25:32.074Z,102186.59
2023-04-29T18:28:18.845Z,102184.84
2023-04-29T18:30:33.783Z,102183.73
2023-04-29T18:33:03.560Z,102191.14
2023-04-29T18:35:33.445Z,102184.05
2023-04-29T18:38:03.727Z,102178.19
2023-04-29T18:40:33.011Z,102188.73
2023-04-29T18:43:02.370Z,102192.50
2023-04-29T18:45:31.715Z,102194.73
2023-04-29T18:48:03.065Z,102192.63
2023-04-29T18:50:32.521Z,102201.09
2023-04-29T18:53:02.973Z,102206.34
2023-04-29T18:55:32.252Z,102201.95
2023-04-29T18:58:01.576Z,102206.21
2023-04-29T19:00:30.851Z,102210.73
2023-04-29T19:03:00.522Z,102209.21
2023-04-29T19:05:32.660Z,102221.56
2023-04-29T19:08:01.981Z,102222.91
2023-04-29T19:10:31.361Z,102228.38
2023-04-29T19:13:01.083Z,102227.78
2023-04-29T19:15:32.163Z,102229.13
2023-04-29T19:18:01.817Z,102231.70
2023-04-29T19:20:31.190Z,102233.42
2023-04-29T19:23:00.544Z,102235.31
2023-04-29T19:25:31.980Z,102246.65
2023-04-29T19:28:01.270Z,102247.59
2023-04-29T19:30:30.731Z,102255.36
2023-04-29T19:33:00.005Z,102256.02
2023-04-29T19:35:29.722Z,102258.64
2023-04-29T19:37:58.996Z,102261.47
2023-04-29T19:40:28.499Z,102255.38
2023-04-29T19:42:58.154Z,102264.97
2023-04-29T19:45:27.815Z,102266.29
2023-04-29T19:47:58.805Z,102262.41
2023-04-29T19:50:29.365Z,102263.73
2023-04-29T19:52:59.610Z,102266.16
2023-04-29T19:55:29.111Z,102273.59
2023-04-29T19:57:58.765Z,102275.74
2023-04-29T20:00:28.367Z,102276.48
2023-04-29T20:02:57.718Z,102281.06
2023-04-29T20:05:28.431Z,102288.09
2023-04-29T20:07:57.758Z,102284.95
2023-04-29T20:10:29.755Z,102286.00
2023-04-29T20:12:58.143Z,102290.22
2023-04-29T20:15:27.527Z,102292.80
2023-04-29T20:17:58.326Z,102295.83
2023-04-29T20:20:28.013Z,102292.69
2023-04-29T20:22:59.013Z,102292.38
2023-04-29T20:25:28.800Z,102296.56
2023-04-29T20:27:58.837Z,102299.28
2023-04-29T20:30:28.239Z,102301.37
2023-04-29T20:32:57.736Z,102303.22
2023-04-29T20:35:27.596Z,102308.11
2023-04-29T20:37:57.378Z,102307.83
2023-04-29T20:40:26.676Z,102316.22
2023-04-29T20:42:56.183Z,102322.84
2023-04-29T20:45:25.726Z,102316.91
2023-04-29T20:47:55.156Z,102325.05
2023-04-29T20:50:24.744Z,102329.40
2023-04-29T20:52:54.390Z,102336.13
2023-04-29T20:55:23.900Z,102337.16
2023-04-29T20:57:53.683Z,102335.52
2023-04-29T21:00:23.169Z,102340.19
2023-04-29T21:02:52.494Z,102342.81
2023-04-29T21:05:22.104Z,102345.44
2023-04-29T21:07:51.403Z,102341.36
2023-04-29T21:10:23.255Z,102336.27
2023-04-29T21:12:52.534Z,102341.05
2023-04-29T21:15:22.092Z,102341.22
2023-04-29T21:17:51.436Z,102337.67
2023-04-29T21:20:21.418Z,102336.44
2023-04-29T21:22:50.942Z,102339.30
2023-04-29T21:25:20.298Z,102338.30
2023-04-29T21:27:52.567Z,102340.37
2023-04-29T21:30:22.003Z,102336.59
2023-04-29T21:32:52.249Z,102339.11
2023-04-29T21:35:22.368Z,102345.44
2023-04-29T21:37:51.660Z,102337.95
2023-04-29T21:40:21.525Z,102347.95
2023-04-29T21:42:51.152Z,102342.48
2023-04-29T21:45:20.691Z,102346.27
2023-04-29T21:47:50.868Z,102349.00
2023-04-29T21:50:20.803Z,102349.67
2023-04-29T21:52:50.634Z,102347.69
2023-04-29T21:55:20.119Z,102351.44
2023-04-29T21:57:49.821Z,102361.70
2023-04-29T22:00:23.621Z,102355.30
2023-04-29T22:02:53.314Z,102355.75
2023-04-29T22:05:22.624Z,102357.59
2023-04-29T22:07:52.236Z,102354.73
2023-04-29T22:10:21.633Z,102346.02
2023-04-29T22:12:51.156Z,102348.63
2023-04-29T22:15:28.032Z,102349.67
2023-04-29T22:17:51.620Z,102351.95
2023-04-29T22:20:21.085Z,102353.33
2023-04-29T22:22:51.348Z,102354.12
2023-04-29T22:25:21.942Z,102360.37
2023-04-29T22:27:52.018Z,102353.55
2023-04-29T22:30:21.301Z,102357.62
2023-04-29T22:32:51.294Z,102354.55
2023-04-29T22:35:20.697Z,102354.39
2023-04-29T22:37:50.692Z,102360.96
2023-04-29T22:40:20.035Z,102363.95
2023-04-29T22:42:49.357Z,102366.13
2023-04-29T22:45:18.707Z,102362.20
2023-04-29T22:47:48.072Z,102358.98
2023-04-29T22:50:17.482Z,102360.81
2023-04-29T22:52:47.150Z,102363.89
2023-04-29T22:55:16.516Z,102363.51
2023-04-29T22:57:45.816Z,102359.88
2023-04-29T23:00:15.900Z,102362.50
2023-04-29T23:02:45.468Z,102358.58
2023-04-29T23:05:15.312Z,102362.20
2023-04-29T23:07:44.606Z,102361.03
2023-04-29T23:10:14.125Z,102370.36
2023-04-29T23:12:43.535Z,102366.20
2023-04-29T23:15:12.905Z,102367.12
2023-04-29T23:17:42.539Z,102360.58
2023-04-29T23:20:13.111Z,102365.67
2023-04-29T23:22:42.729Z,102363.27
2023-04-29T23:25:12.014Z,102367.00
2023-04-29T23:27:41.592Z,102371.72
2023-04-29T23:30:11.213Z,102367.14
2023-04-29T23:32:40.856Z,102377.66
2023-04-29T23:35:12.437Z,102379.72
2023-04-29T23:37:41.991Z,102378.34
2023-04-29T23:40:11.936Z,102383.13
2023-04-29T23:42:41.233Z,102384.99
2023-04-29T23:45:10.772Z,102385.89
2023-04-29T23:47:40.092Z,102385.95
2023-04-29T23:50:10.548Z,102387.61
2023-04-29T23:52:39.889Z,102383.27
2023-04-29T23:55:10.681Z,102387.20
2023-04-29T23:57:40.020Z,102387.61
